createdAt,value
2023-04-02T00:01:00.748Z,51.28
2023-04-02T00:03:42.229Z,51.26
2023-04-02T00:06:32.763Z,51.30
2023-04-02T00:09:22.336Z,51.12
2023-04-02T00:11:55.612Z,51.18
2023-04-02T00:14:34.971Z,51.11
2023-04-02T00:17:05.578Z,51.48
2023-04-02T00:20:00.230Z,51.10
2023-04-02T00:22:33.655Z,51.23
2023-04-02T00:25:12.319Z,51.13
2023-04-02T00:27:40.177Z,51.03
2023-04-02T00:30:08.747Z,51.20
2023-04-02T00:32:37.064Z,50.77
2023-04-02T00:35:26.051Z,51.11
2023-04-02T00:37:54.569Z,50.91
2023-04-02T00:40:31.756Z,51.07
2023-04-02T00:43:04.294Z,51.24
2023-04-02T00:45:36.687Z,51.29
2023-04-02T00:48:22.201Z,51.16
2023-04-02T00:50:52.875Z,51.27
2023-04-02T00:53:28.499Z,50.95
2023-04-02T00:55:58.782Z,51.32
2023-04-02T00:58:36.697Z,51.24
2023-04-02T01:01:04.733Z,51.27
2023-04-02T01:03:36.620Z,51.42
2023-04-02T01:06:11.340Z,51.27
2023-04-02T01:08:58.861Z,51.23
2023-04-02T01:12:01.962Z,51.00
2023-04-02T01:15:07.545Z,50.81
2023-04-02T01:18:09.612Z,51.16
2023-04-02T01:21:10.350Z,51.20
2023-04-02T01:24:02.742Z,51.15
2023-04-02T01:27:02.199Z,51.56
2023-04-02T01:29:46.676Z,51.30
2023-04-02T01:32:18.705Z,51.55
2023-04-02T01:34:49.325Z,51.54
2023-04-02T01:37:49.923Z,51.82
2023-04-02T01:40:39.885Z,51.21
2023-04-02T01:43:33.681Z,51.67
2023-04-02T01:46:29.589Z,51.73
2023-04-02T01:49:00.424Z,51.60
2023-04-02T01:51:36.101Z,51.49
2023-04-02T01:54:07.610Z,51.65
2023-04-02T01:56:35.661Z,51.73
2023-04-02T01:59:05.893Z,51.65
2023-04-02T02:01:48.390Z,51.56
2023-04-02T02:04:17.542Z,51.79
2023-04-02T02:06:47.111Z,51.52
2023-04-02T02:09:27.150Z,52.00
2023-04-02T02:11:58.719Z,52.04
2023-04-02T02:14:29.227Z,51.93
2023-04-02T02:17:02.363Z,52.14
2023-04-02T02:19:42.515Z,52.19
2023-04-02T02:22:21.785Z,52.21
2023-04-02T02:24:49.554Z,51.97
2023-04-02T02:27:23.251Z,51.68
2023-04-02T02:30:38.263Z,52.23
2023-04-02T02:33:30.966Z,52.03
2023-04-02T02:36:36.796Z,51.47
2023-04-02T02:39:31.262Z,52.05
2023-04-02T02:42:31.795Z,52.13
2023-04-02T02:45:03.048Z,51.81
2023-04-02T02:47:34.916Z,51.50
2023-04-02T02:50:10.228Z,51.79
2023-04-02T02:52:39.873Z,51.70
2023-04-02T02:55:17.626Z,51.67
2023-04-02T02:58:07.553Z,51.84
2023-04-02T03:00:42.539Z,51.72
2023-04-02T03:03:23.373Z,51.71
2023-04-02T03:06:02.647Z,51.68
2023-04-02T03:08:40.084Z,51.38
2023-04-02T03:11:33.261Z,51.56
2023-04-02T03:14:48.827Z,51.55
2023-04-02T03:17:32.315Z,51.60
2023-04-02T03:20:52.100Z,51.89
2023-04-02T03:23:32.523Z,51.96
2023-04-02T03:26:20.873Z,51.62
2023-04-02T03:29:22.736Z,52.21
2023-04-02T03:32:22.924Z,52.07
2023-04-02T03:35:01.489Z,51.77
2023-04-02T03:37:46.211Z,51.96
2023-04-02T03:40:34.369Z,51.55
2023-04-02T03:43:20.528Z,51.93
2023-04-02T03:45:56.989Z,52.09
2023-04-02T03:48:43.475Z,52.03
2023-04-02T03:51:49.099Z,52.38
2023-04-02T03:54:17.318Z,52.56
2023-04-02T03:56:47.466Z,52.86
2023-04-02T03:59:37.930Z,53.24
2023-04-02T04:02:38.495Z,52.91
2023-04-02T04:05:18.768Z,52.75
2023-04-02T04:07:46.859Z,52.95
2023-04-02T04:10:22.185Z,53.50
2023-04-02T04:12:52.914Z,53.45
2023-04-02T04:15:22.134Z,53.13
2023-04-02T04:18:10.485Z,53.34
2023-04-02T04:21:00.728Z,53.21
2023-04-02T04:23:40.923Z,52.92
2023-04-02T04:26:30.984Z,53.22
2023-04-02T04:29:45.531Z,52.84
2023-04-02T04:32:31.739Z,52.94
2023-04-02T04:35:37.518Z,53.11
2023-04-02T04:38:16.607Z,53.23
2023-04-02T04:40:56.801Z,53.14
2023-04-02T04:43:51.045Z,52.74
2023-04-02T04:47:06.040Z,52.96
2023-04-02T04:49:46.508Z,53.28
2023-04-02T04:52:32.794Z,53.07
2023-04-02T04:55:01.278Z,53.22
2023-04-02T04:57:39.814Z,53.23
2023-04-02T05:00:25.645Z,53.07
2023-04-02T05:03:22.191Z,53.09
2023-04-02T05:05:50.743Z,53.20
2023-04-02T05:08:30.465Z,53.37
2023-04-02T05:11:04.730Z,53.19
2023-04-02T05:13:54.256Z,53.24
2023-04-02T05:16:41.421Z,52.98
2023-04-02T05:19:19.500Z,53.03
2023-04-02T05:21:59.819Z,53.39
2023-04-02T05:24:57.226Z,52.81
2023-04-02T05:27:54.744Z,53.09
2023-04-02T05:30:25.235Z,52.82
2023-04-02T05:33:04.910Z,53.11
2023-04-02T05:35:36.711Z,53.20
2023-04-02T05:38:06.649Z,53.11
2023-04-02T05:40:44.477Z,53.34
2023-04-02T05:43:18.836Z,53.13
2023-04-02T05:45:55.735Z,53.35
2023-04-02T05:48:35.719Z,53.21
2023-04-02T05:51:09.501Z,53.00
2023-04-02T05:53:41.598Z,53.30
2023-04-02T05:56:28.055Z,53.34
2023-04-02T05:59:27.044Z,53.18
2023-04-02T06:02:11.467Z,53.30
2023-04-02T06:04:57.665Z,52.79
2023-04-02T06:07:46.375Z,53.38
2023-04-02T06:10:25.724Z,53.13
2023-04-02T06:13:08.424Z,53.05
2023-04-02T06:15:40.724Z,53.18
2023-04-02T06:18:17.561Z,52.92
2023-04-02T06:20:46.342Z,52.54
2023-04-02T06:23:53.202Z,53.24
2023-04-02T06:26:33.351Z,52.67
2023-04-02T06:29:18.113Z,52.83
2023-04-02T06:32:00.730Z,52.60
2023-04-02T06:34:31.159Z,52.41
2023-04-02T06:37:21.169Z,52.86
2023-04-02T06:39:51.045Z,52.85
2023-04-02T06:42:34.342Z,53.11
2023-04-02T06:45:29.323Z,53.32
2023-04-02T06:48:26.341Z,53.23
2023-04-02T06:51:11.463Z,53.42
2023-04-02T06:53:51.538Z,53.16
2023-04-02T06:56:51.382Z,53.86
2023-04-02T06:59:26.202Z,53.73
2023-04-02T07:02:32.672Z,54.67
2023-04-02T07:05:09.441Z,54.58
2023-04-02T07:07:40.589Z,54.57
2023-04-02T07:10:12.782Z,54.79
2023-04-02T07:12:40.641Z,54.36
2023-04-02T07:15:14.725Z,54.35
2023-04-02T07:17:43.791Z,54.29
2023-04-02T07:20:33.756Z,54.43
2023-04-02T07:23:06.203Z,54.53
2023-04-02T07:25:33.928Z,54.47
2023-04-02T07:28:01.697Z,54.35
2023-04-02T07:30:29.167Z,54.26
2023-04-02T07:32:56.687Z,54.04
2023-04-02T07:35:24.233Z,54.16
2023-04-02T07:37:52.806Z,53.99
2023-04-02T07:40:22.869Z,54.06
2023-04-02T07:42:50.632Z,53.98
2023-04-02T07:45:18.188Z,54.19
2023-04-02T07:47:45.729Z,54.22
2023-04-02T07:50:13.450Z,54.23
2023-04-02T07:52:42.470Z,54.11
2023-04-02T07:55:15.476Z,53.48
2023-04-02T07:57:58.587Z,53.63
2023-04-02T08:00:29.048Z,53.29
2023-04-02T08:02:56.716Z,53.26
2023-04-02T08:05:24.337Z,53.12
2023-04-02T08:07:56.672Z,52.84
2023-04-02T08:10:24.721Z,52.75
2023-04-02T08:12:52.341Z,52.74
2023-04-02T08:15:19.877Z,53.15
2023-04-02T08:17:47.879Z,53.07
2023-04-02T08:20:19.022Z,52.94
2023-04-02T08:22:47.347Z,52.96
2023-04-02T08:25:15.461Z,52.79
2023-04-02T08:27:43.289Z,52.65
2023-04-02T08:30:13.947Z,52.43
2023-04-02T08:32:41.554Z,52.63
2023-04-02T08:35:12.183Z,52.31
2023-04-02T08:37:39.761Z,52.10
2023-04-02T08:40:15.983Z,52.14
2023-04-02T08:43:03.609Z,52.29
2023-04-02T08:45:50.513Z,52.25
2023-04-02T08:48:18.539Z,51.31
2023-04-02T08:50:46.312Z,51.47
2023-04-02T08:53:25.629Z,51.74
2023-04-02T08:56:33.527Z,51.97
2023-04-02T08:59:19.799Z,51.37
2023-04-02T09:02:03.686Z,51.16
2023-04-02T09:04:33.274Z,51.10
2023-04-02T09:07:00.930Z,50.83
2023-04-02T09:09:28.694Z,50.75
2023-04-02T09:12:05.317Z,50.23
2023-04-02T09:15:22.558Z,50.17
2023-04-02T09:18:00.447Z,50.43
2023-04-02T09:20:29.300Z,50.33
2023-04-02T09:22:57.687Z,50.23
2023-04-02T09:25:28.425Z,50.33
2023-04-02T09:28:02.681Z,50.32
2023-04-02T09:30:51.976Z,50.43
2023-04-02T09:33:19.498Z,50.31
2023-04-02T09:35:49.988Z,50.12
2023-04-02T09:38:31.626Z,49.93
2023-04-02T09:41:03.802Z,50.15
2023-04-02T09:43:37.902Z,50.18
2023-04-02T09:46:25.798Z,49.91
2023-04-02T09:49:03.365Z,49.93
2023-04-02T09:51:34.659Z,50.05
2023-04-02T09:54:13.473Z,50.09
2023-04-02T09:56:57.993Z,49.37
2023-04-02T09:59:25.955Z,49.09
2023-04-02T10:01:53.463Z,49.20
2023-04-02T10:04:45.015Z,49.58
2023-04-02T10:07:42.821Z,49.09
2023-04-02T10:10:31.279Z,49.41
2023-04-02T10:13:03.198Z,48.69
2023-04-02T10:15:43.530Z,48.53
2023-04-02T10:18:53.788Z,48.88
2023-04-02T10:21:37.484Z,47.66
2023-04-02T10:24:16.841Z,47.38
2023-04-02T10:27:02.549Z,47.49
2023-04-02T10:30:19.078Z,47.41
2023-04-02T10:32:56.519Z,47.74
2023-04-02T10:35:45.243Z,47.36
2023-04-02T10:38:43.108Z,47.27
2023-04-02T10:41:33.444Z,47.54
2023-04-02T10:44:39.094Z,47.55
2023-04-02T10:47:34.112Z,47.42
2023-04-02T10:50:24.290Z,47.10
2023-04-02T10:53:17.984Z,47.46
2023-04-02T10:55:58.202Z,46.65
2023-04-02T10:58:29.941Z,46.59
2023-04-02T11:01:07.890Z,46.78
2023-04-02T11:03:53.843Z,46.90
2023-04-02T11:06:28.677Z,46.77
2023-04-02T11:09:04.851Z,46.67
2023-04-02T11:11:50.800Z,46.77
2023-04-02T11:14:24.243Z,46.47
2023-04-02T11:16:54.820Z,46.02
2023-04-02T11:19:29.524Z,46.08
2023-04-02T11:22:06.634Z,46.04
2023-04-02T11:24:47.725Z,46.25
2023-04-02T11:27:24.467Z,45.18
2023-04-02T11:30:27.472Z,45.57
2023-04-02T11:33:39.824Z,44.84
2023-04-02T11:36:50.272Z,44.61
2023-04-02T11:39:59.578Z,44.76
2023-04-02T11:42:36.065Z,44.29
2023-04-02T11:45:21.993Z,44.52
2023-04-02T11:48:02.184Z,44.39
2023-04-02T11:50:31.900Z,44.67
2023-04-02T11:53:10.257Z,44.74
2023-04-02T11:55:47.383Z,44.53
2023-04-02T11:58:42.168Z,44.74
2023-04-02T12:01:50.231Z,44.51
2023-04-02T12:05:16.650Z,44.03
2023-04-02T12:08:11.882Z,43.98
2023-04-02T12:11:01.248Z,44.67
2023-04-02T12:13:40.722Z,44.52
2023-04-02T12:16:13.413Z,45.09
2023-04-02T12:18:53.707Z,44.96
2023-04-02T12:21:26.988Z,45.14
2023-04-02T12:23:59.128Z,44.83
2023-04-02T12:26:37.166Z,44.98
2023-04-02T12:29:26.698Z,45.38
2023-04-02T12:31:57.225Z,45.57
2023-04-02T12:34:29.572Z,45.27
2023-04-02T12:37:03.943Z,45.29
2023-04-02T12:39:34.102Z,45.14
2023-04-02T12:42:02.206Z,45.24
2023-04-02T12:44:31.208Z,45.01
2023-04-02T12:46:59.423Z,45.05
2023-04-02T12:49:43.083Z,45.03
2023-04-02T12:52:17.653Z,45.28
2023-04-02T12:55:02.925Z,45.05
2023-04-02T12:57:40.371Z,45.72
2023-04-02T13:00:20.891Z,46.24
2023-04-02T13:03:04.426Z,46.78
2023-04-02T13:05:54.802Z,47.46
2023-04-02T13:08:37.195Z,47.18
2023-04-02T13:11:06.189Z,47.96
2023-04-02T13:13:40.519Z,48.29
2023-04-02T13:16:19.700Z,48.41
2023-04-02T13:18:49.701Z,48.79
2023-04-02T13:21:17.546Z,49.15
2023-04-02T13:23:46.087Z,49.14
2023-04-02T13:26:21.937Z,49.23
2023-04-02T13:29:04.693Z,49.20
2023-04-02T13:31:33.298Z,49.35
2023-04-02T13:34:01.405Z,49.51
2023-04-02T13:36:29.288Z,49.35
2023-04-02T13:38:57.461Z,49.85
2023-04-02T13:41:40.289Z,49.85
2023-04-02T13:44:17.950Z,49.88
2023-04-02T13:46:45.573Z,49.96
2023-04-02T13:49:13.066Z,49.73
2023-04-02T13:52:10.501Z,49.79
2023-04-02T13:54:48.801Z,49.63
2023-04-02T13:57:16.524Z,49.69
2023-04-02T13:59:44.031Z,49.97
2023-04-02T14:02:20.358Z,49.94
2023-04-02T14:05:02.480Z,50.10
2023-04-02T14:07:51.550Z,49.96
2023-04-02T14:10:51.054Z,50.07
2023-04-02T14:14:02.683Z,50.31
2023-04-02T14:16:52.229Z,50.31
2023-04-02T14:19:31.649Z,50.60
2023-04-02T14:22:23.376Z,50.41
2023-04-02T14:25:26.032Z,50.31
2023-04-02T14:28:20.454Z,50.67
2023-04-02T14:31:14.895Z,50.29
2023-04-02T14:34:00.753Z,50.82
2023-04-02T14:36:51.038Z,50.67
2023-04-02T14:40:10.281Z,50.54
2023-04-02T14:43:00.324Z,50.41
2023-04-02T14:46:05.815Z,50.78
2023-04-02T14:48:54.283Z,50.75
2023-04-02T14:51:52.798Z,50.96
2023-04-02T14:54:26.011Z,50.53
2023-04-02T14:57:23.479Z,50.32
2023-04-02T15:00:10.687Z,50.71
2023-04-02T15:03:11.132Z,50.71
2023-04-02T15:05:46.236Z,51.32
2023-04-02T15:08:35.073Z,51.46
2023-04-02T15:11:31.210Z,51.97
2023-04-02T15:14:13.029Z,51.76
2023-04-02T15:16:40.877Z,51.70
2023-04-02T15:19:16.419Z,51.70
2023-04-02T15:22:14.858Z,51.72
2023-04-02T15:24:57.262Z,51.47
2023-04-02T15:27:52.523Z,51.67
2023-04-02T15:30:37.043Z,51.49
2023-04-02T15:33:27.321Z,51.72
2023-04-02T15:36:17.296Z,51.39
2023-04-02T15:38:53.214Z,51.41
2023-04-02T15:41:27.407Z,50.60
2023-04-02T15:44:13.557Z,50.69
2023-04-02T15:47:10.230Z,50.92
2023-04-02T15:50:17.121Z,50.76
2023-04-02T15:53:09.914Z,50.95
2023-04-02T15:55:49.279Z,50.49
2023-04-02T15:58:53.300Z,50.64
2023-04-02T16:01:50.073Z,50.54
2023-04-02T16:04:42.932Z,50.77
2023-04-02T16:08:00.622Z,51.18
2023-04-02T16:10:42.331Z,50.29
2023-04-02T16:13:36.814Z,50.36
2023-04-02T16:16:33.861Z,50.25
2023-04-02T16:19:17.334Z,50.03
2023-04-02T16:21:56.578Z,50.20
2023-04-02T16:24:24.334Z,50.39
2023-04-02T16:26:57.281Z,50.61
2023-04-02T16:29:55.028Z,50.06
2023-04-02T16:32:28.172Z,49.92
2023-04-02T16:38:28.926Z,49.95
2023-04-02T16:41:27.580Z,50.09
2023-04-02T16:44:21.703Z,49.88
2023-04-02T16:47:40.189Z,49.73
2023-04-02T16:50:34.490Z,49.47
2023-04-02T16:53:47.763Z,49.46
2023-04-02T16:57:05.144Z,49.61
2023-04-02T16:59:39.415Z,50.08
2023-04-02T17:02:24.264Z,49.78
2023-04-02T17:05:31.046Z,49.41
2023-04-02T17:08:30.088Z,49.81
2023-04-02T17:11:06.956Z,49.91
2023-04-02T17:14:05.797Z,49.91
2023-04-02T17:16:46.188Z,49.60
2023-04-02T17:19:17.116Z,49.58
2023-04-02T17:21:52.527Z,49.16
2023-04-02T17:24:33.863Z,49.25
2023-04-02T17:27:20.230Z,49.58
2023-04-02T17:29:52.889Z,49.37
2023-04-02T17:32:36.870Z,49.18
2023-04-02T17:35:59.418Z,49.71
2023-04-02T17:38:48.447Z,49.16
2023-04-02T17:41:31.767Z,49.16
2023-04-02T17:44:45.838Z,49.45
2023-04-02T17:47:23.077Z,49.26
2023-04-02T17:50:17.549Z,48.89
2023-04-02T17:52:53.112Z,49.08
2023-04-02T17:55:41.949Z,48.92
2023-04-02T17:58:37.276Z,48.82
2023-04-02T18:01:28.075Z,49.35
2023-04-02T18:04:36.318Z,49.20
2023-04-02T18:07:40.193Z,48.87
2023-04-02T18:10:38.673Z,48.77
2023-04-02T18:13:30.769Z,48.65
2023-04-02T18:16:37.817Z,48.78
2023-04-02T18:19:29.380Z,48.27
2023-04-02T18:22:40.929Z,48.42
2023-04-02T18:26:04.118Z,48.53
2023-04-02T18:28:41.527Z,48.33
2023-04-02T18:31:33.308Z,48.35
2023-04-02T18:34:17.678Z,48.45
2023-04-02T18:37:19.513Z,48.42
2023-04-02T18:40:15.582Z,48.39
2023-04-02T18:43:32.858Z,48.59
2023-04-02T18:46:29.166Z,48.34
2023-04-02T18:49:03.619Z,48.21
2023-04-02T18:51:37.301Z,48.18
2023-04-02T18:54:22.584Z,47.79
2023-04-02T18:56:50.097Z,48.04
2023-04-02T18:59:57.358Z,47.43
2023-04-02T19:02:51.992Z,47.58
2023-04-02T19:05:35.545Z,47.76
2023-04-02T19:08:16.234Z,47.46
2023-04-02T19:10:47.926Z,47.26
2023-04-02T19:13:18.833Z,47.15
2023-04-02T19:15:58.390Z,47.19
2023-04-02T19:18:49.108Z,47.27
2023-04-02T19:21:46.027Z,46.53
2023-04-02T19:24:58.523Z,47.06
2023-04-02T19:27:53.759Z,46.40
2023-04-02T19:30:53.472Z,46.18
2023-04-02T19:33:47.949Z,46.81
2023-04-02T19:36:41.495Z,46.43
2023-04-02T19:39:35.504Z,46.54
2023-04-02T19:42:31.119Z,46.59
2023-04-02T19:44:58.973Z,46.08
2023-04-02T19:47:26.742Z,46.17
2023-04-02T19:49:55.687Z,46.51
2023-04-02T19:52:23.178Z,46.73
2023-04-02T19:54:50.686Z,46.10
2023-04-02T19:57:18.303Z,45.95
2023-04-02T19:59:45.899Z,46.01
2023-04-02T20:02:13.477Z,46.17
2023-04-02T20:04:40.988Z,45.50
2023-04-02T20:07:08.511Z,45.02
2023-04-02T20:09:35.967Z,45.49
2023-04-02T20:12:04.059Z,45.23
2023-04-02T20:14:31.538Z,45.03
2023-04-02T20:16:59.110Z,45.06
2023-04-02T20:19:26.687Z,45.08
2023-04-02T20:21:54.174Z,45.03
2023-04-02T20:24:21.674Z,45.00
2023-04-02T20:26:49.393Z,45.12
2023-04-02T20:29:16.984Z,45.18
2023-04-02T20:31:44.492Z,45.45
2023-04-02T20:34:12.138Z,45.52
2023-04-02T20:36:39.936Z,45.26
2023-04-02T20:39:09.062Z,44.70
2023-04-02T20:41:36.568Z,45.09
2023-04-02T20:44:04.063Z,45.07
2023-04-02T20:46:31.606Z,44.76
2023-04-02T20:48:59.089Z,44.98
2023-04-02T20:51:26.576Z,44.75
2023-04-02T20:53:54.369Z,44.41
2023-04-02T20:56:26.393Z,44.74
2023-04-02T20:58:53.878Z,44.53
2023-04-02T21:01:29.199Z,44.53
2023-04-02T21:03:59.434Z,44.63
2023-04-02T21:06:33.520Z,44.71
2023-04-02T21:09:05.365Z,44.72
2023-04-02T21:11:36.431Z,44.56
2023-04-02T21:14:04.287Z,44.56
2023-04-02T21:16:32.425Z,44.31
2023-04-02T21:19:04.533Z,44.38
2023-04-02T21:21:32.740Z,44.42
2023-04-02T21:24:03.696Z,44.04
2023-04-02T21:26:34.925Z,43.72
2023-04-02T21:29:04.065Z,43.34
2023-04-02T21:31:39.390Z,43.54
2023-04-02T21:34:09.310Z,43.62
2023-04-02T21:36:41.749Z,43.78
2023-04-02T21:39:15.915Z,43.59
2023-04-02T21:41:46.616Z,43.13
2023-04-02T21:44:16.866Z,43.20
2023-04-02T21:46:44.863Z,43.15
2023-04-02T21:49:16.175Z,43.02
2023-04-02T21:51:46.527Z,43.13
2023-04-02T21:54:14.066Z,43.15
2023-04-02T21:56:46.386Z,43.11
2023-04-02T21:59:16.860Z,42.86
2023-04-02T22:01:50.519Z,43.33
2023-04-02T22:04:25.013Z,43.30
2023-04-02T22:06:53.575Z,42.79
2023-04-02T22:09:24.625Z,42.56
2023-04-02T22:11:58.608Z,42.91
2023-04-02T22:14:27.327Z,43.50
2023-04-02T22:16:55.160Z,43.31
2023-04-02T22:19:22.772Z,43.24
2023-04-02T22:21:50.506Z,43.16
2023-04-02T22:24:21.840Z,42.86
2023-04-02T22:26:49.428Z,42.70
2023-04-02T22:29:17.125Z,42.89
2023-04-02T22:31:45.458Z,43.19
2023-04-02T22:34:13.043Z,43.33
2023-04-02T22:36:41.168Z,43.38
2023-04-02T22:39:11.949Z,43.12
2023-04-02T22:41:39.528Z,43.09
2023-04-02T22:44:07.248Z,43.18
2023-04-02T22:46:35.061Z,43.30
2023-04-02T22:49:03.148Z,43.27
2023-04-02T22:51:30.967Z,42.90
2023-04-02T22:53:58.462Z,43.29
2023-04-02T22:56:31.625Z,43.13
2023-04-02T22:58:59.383Z,43.34
2023-04-02T23:01:33.000Z,43.53
2023-04-02T23:04:00.859Z,43.60
2023-04-02T23:06:28.864Z,43.33
2023-04-02T23:08:56.780Z,43.56
2023-04-02T23:11:27.644Z,43.38
2023-04-02T23:13:57.427Z,43.54
2023-04-02T23:16:27.823Z,43.48
2023-04-02T23:18:56.546Z,43.51
2023-04-02T23:21:25.068Z,43.43
2023-04-02T23:23:53.038Z,43.53
2023-04-02T23:26:31.349Z,43.34
2023-04-02T23:29:00.365Z,43.49
2023-04-02T23:31:28.284Z,43.38
2023-04-02T23:33:55.821Z,43.41
2023-04-02T23:36:24.912Z,43.22
2023-04-02T23:38:55.318Z,43.88
2023-04-02T23:41:26.685Z,43.34
2023-04-02T23:43:56.114Z,43.40
2023-04-02T23:46:24.777Z,43.33
2023-04-02T23:48:52.985Z,43.46
2023-04-02T23:51:21.588Z,43.43
2023-04-02T23:53:50.586Z,43.60
2023-04-02T23:56:19.142Z,43.55
2023-04-02T23:58:46.669Z,43.54
